New Orleans, LA (70123)

10:46 PM CST on January 30, 2015 (GMT -0600)
Hickory Ridge Estates | Change Station
CLOSE
Current Station
Personal Weather Station
Location: Harahan, LA
Elevation: 11 ft
Nearby Weather Stations

Elev 11 ft 29.95 °N, 90.20 °W | Updated 8 seconds ago

Mostly Cloudy
Mostly Cloudy
51.6 °F
Feels Like 51.6 °F
N
2.0
Wind Variable Wind from NE
Gusts 6.0 mph

Today
High -- | Low -- °F
--% Chance of Precip.
Yesterday
High -- | Low -- °F
Precip. -- in
6:52 AM 5:36 PM
Waxing Gibbous, 87% visible
Pressure 30.36 in
Visibility 10.0 miles
Clouds Mostly Cloudy 27000 ft
Dew Point 40 °F
Humidity 64%
Rainfall 0.00 in
Snow Depth Not available.
UV 0 out of 12
Pollen 8.60 out of 12
Air Quality Not available.
Flu Activity Not available.
METAR KMSY 310353Z 04007KT 10SM BKN270 10/04 A3035 RMK AO2 SLP279 T01000039

More Conditions Fewer Conditions

Pressure 30.36 in
Visibility 10.0 miles
Clouds Mostly Cloudy 27000 ft
Dew Point 40 °F
Humidity 64%
Rainfall 0.00 in
Snow Depth Not available.
UV 0 out of 12
Pollen 8.60 out of 12
Air Quality Not available.
Flu Activity Not available.
METAR KMSY 310353Z 04007KT 10SM BKN270 10/04 A3035 RMK AO2 SLP279 T01000039

More Conditions Fewer Conditions

10-Day Weather Forecast

Almanac

Astronomy

Jan. 30, 2015 Rise Set
Actual Time
Civil Twilight
Nautical Twilight
Astronomical Twilight
Moon
Length of Visible Light
Length of Day
Tomorrow will be .
, % of the Moon is Illuminated

Today's Extremes

State Highs State Lows

Community

WunderPhotos

Upload Photos

1,791,999 photos uploaded!

WunderBlogs® & News

Nearby

Air Quality

  Air Quality AQ Index Pollutant
Not available.

Snow Depth

Station Depth Elevation

Earthquake Activity

City Distance Mag. Time & Date
Minimum magnitude displayed is 2.5.

Coastal Water Temperatures

Place Temperature

Nearby Weather Stations